sensor_id;sensor_type;location;lat;lon;timestamp;P1;durP1;ratioP1;P2;durP2;ratioP2
18090;SDS011;9172;49.948;9.208;2022-12-13T00:01:48;15.27;;;7.07;;
18090;SDS011;9172;49.948;9.208;2022-12-13T00:04:18;18.77;;;7.47;;
18090;SDS011;9172;49.948;9.208;2022-12-13T00:06:49;24.37;;;8.13;;
18090;SDS011;9172;49.948;9.208;2022-12-13T00:09:19;16.10;;;7.47;;
18090;SDS011;9172;49.948;9.208;2022-12-13T00:11:48;13.27;;;6.60;;
18090;SDS011;9172;49.948;9.208;2022-12-13T00:14:18;14.07;;;6.43;;
18090;SDS011;9172;49.948;9.208;2022-12-13T00:16:47;15.13;;;7.40;;
18090;SDS011;9172;49.948;9.208;2022-12-13T00:19:17;16.07;;;6.80;;
18090;SDS011;9172;49.948;9.208;2022-12-13T00:21:46;15.13;;;7.60;;
18090;SDS011;9172;49.948;9.208;2022-12-13T00:24:16;21.43;;;8.03;;
18090;SDS011;9172;49.948;9.208;2022-12-13T00:26:44;17.10;;;7.73;;
18090;SDS011;9172;49.948;9.208;2022-12-13T00:29:14;21.10;;;8.63;;
18090;SDS011;9172;49.948;9.208;2022-12-13T00:31:43;17.67;;;7.90;;
18090;SDS011;9172;49.948;9.208;2022-12-13T00:34:13;19.37;;;8.23;;
18090;SDS011;9172;49.948;9.208;2022-12-13T00:36:43;18.20;;;7.73;;
18090;SDS011;9172;49.948;9.208;2022-12-13T00:39:13;17.80;;;7.63;;
18090;SDS011;9172;49.948;9.208;2022-12-13T00:41:42;18.97;;;8.93;;
18090;SDS011;9172;49.948;9.208;2022-12-13T00:44:11;20.73;;;8.57;;
18090;SDS011;9172;49.948;9.208;2022-12-13T00:46:40;25.23;;;9.93;;
18090;SDS011;9172;49.948;9.208;2022-12-13T00:49:10;20.17;;;9.70;;
18090;SDS011;9172;49.948;9.208;2022-12-13T00:51:39;25.80;;;11.30;;
18090;SDS011;9172;49.948;9.208;2022-12-13T00:54:09;28.37;;;11.87;;
18090;SDS011;9172;49.948;9.208;2022-12-13T00:56:39;24.67;;;10.93;;
18090;SDS011;9172;49.948;9.208;2022-12-13T00:59:08;25.00;;;10.97;;
18090;SDS011;9172;49.948;9.208;2022-12-13T01:01:39;27.40;;;11.23;;
18090;SDS011;9172;49.948;9.208;2022-12-13T01:04:08;21.00;;;10.93;;
18090;SDS011;9172;49.948;9.208;2022-12-13T01:06:37;27.87;;;11.77;;
18090;SDS011;9172;49.948;9.208;2022-12-13T01:09:09;26.23;;;11.03;;
18090;SDS011;9172;49.948;9.208;2022-12-13T01:11:41;33.00;;;12.43;;
18090;SDS011;9172;49.948;9.208;2022-12-13T01:14:10;32.03;;;11.53;;
18090;SDS011;9172;49.948;9.208;2022-12-13T01:16:39;36.10;;;13.07;;
18090;SDS011;9172;49.948;9.208;2022-12-13T01:19:08;32.93;;;13.13;;
18090;SDS011;9172;49.948;9.208;2022-12-13T01:21:37;27.20;;;11.83;;
18090;SDS011;9172;49.948;9.208;2022-12-13T01:24:07;24.43;;;11.53;;
18090;SDS011;9172;49.948;9.208;2022-12-13T01:26:36;25.43;;;12.23;;
18090;SDS011;9172;49.948;9.208;2022-12-13T01:29:05;31.60;;;12.60;;
18090;SDS011;9172;49.948;9.208;2022-12-13T01:31:36;29.63;;;12.27;;
18090;SDS011;9172;49.948;9.208;2022-12-13T01:34:06;33.07;;;13.40;;
18090;SDS011;9172;49.948;9.208;2022-12-13T01:36:36;27.87;;;11.87;;
18090;SDS011;9172;49.948;9.208;2022-12-13T01:39:04;27.27;;;11.33;;
18090;SDS011;9172;49.948;9.208;2022-12-13T01:41:33;25.90;;;11.60;;
18090;SDS011;9172;49.948;9.208;2022-12-13T01:44:03;30.17;;;13.27;;
18090;SDS011;9172;49.948;9.208;2022-12-13T01:46:33;34.90;;;15.00;;
18090;SDS011;9172;49.948;9.208;2022-12-13T01:49:03;32.13;;;11.83;;
18090;SDS011;9172;49.948;9.208;2022-12-13T01:51:35;36.23;;;12.70;;
18090;SDS011;9172;49.948;9.208;2022-12-13T01:54:07;28.97;;;12.83;;
18090;SDS011;9172;49.948;9.208;2022-12-13T01:56:39;32.03;;;12.67;;
18090;SDS011;9172;49.948;9.208;2022-12-13T01:59:10;27.00;;;11.77;;
18090;SDS011;9172;49.948;9.208;2022-12-13T02:01:39;26.60;;;12.33;;
18090;SDS011;9172;49.948;9.208;2022-12-13T02:04:07;29.33;;;12.77;;
18090;SDS011;9172;49.948;9.208;2022-12-13T02:06:38;36.77;;;13.67;;
18090;SDS011;9172;49.948;9.208;2022-12-13T02:09:08;31.40;;;12.97;;
18090;SDS011;9172;49.948;9.208;2022-12-13T02:11:40;27.53;;;12.60;;
18090;SDS011;9172;49.948;9.208;2022-12-13T02:14:10;27.50;;;11.33;;
18090;SDS011;9172;49.948;9.208;2022-12-13T02:16:43;23.63;;;10.50;;
18090;SDS011;9172;49.948;9.208;2022-12-13T02:19:32;23.97;;;10.60;;
18090;SDS011;9172;49.948;9.208;2022-12-13T02:22:10;24.40;;;10.20;;
18090;SDS011;9172;49.948;9.208;2022-12-13T02:24:46;22.97;;;10.53;;
18090;SDS011;9172;49.948;9.208;2022-12-13T02:27:29;28.60;;;10.27;;
18090;SDS011;9172;49.948;9.208;2022-12-13T02:33:01;27.30;;;10.93;;
18090;SDS011;9172;49.948;9.208;2022-12-13T02:35:52;24.93;;;10.30;;
18090;SDS011;9172;49.948;9.208;2022-12-13T02:38:26;25.83;;;11.13;;
18090;SDS011;9172;49.948;9.208;2022-12-13T02:40:59;27.77;;;11.47;;
18090;SDS011;9172;49.948;9.208;2022-12-13T02:43:33;24.53;;;10.67;;
18090;SDS011;9172;49.948;9.208;2022-12-13T02:46:04;26.17;;;10.93;;
18090;SDS011;9172;49.948;9.208;2022-12-13T02:48:35;22.90;;;10.33;;
18090;SDS011;9172;49.948;9.208;2022-12-13T02:51:06;22.50;;;10.67;;
18090;SDS011;9172;49.948;9.208;2022-12-13T02:53:38;26.40;;;10.90;;
18090;SDS011;9172;49.948;9.208;2022-12-13T02:56:09;23.97;;;9.13;;
18090;SDS011;9172;49.948;9.208;2022-12-13T02:58:39;28.13;;;11.13;;
18090;SDS011;9172;49.948;9.208;2022-12-13T03:01:14;26.97;;;12.07;;
18090;SDS011;9172;49.948;9.208;2022-12-13T03:03:50;20.33;;;9.90;;
18090;SDS011;9172;49.948;9.208;2022-12-13T03:06:24;20.60;;;9.47;;
18090;SDS011;9172;49.948;9.208;2022-12-13T03:09:04;25.53;;;9.93;;
18090;SDS011;9172;49.948;9.208;2022-12-13T03:11:46;22.93;;;10.37;;
18090;SDS011;9172;49.948;9.208;2022-12-13T03:14:37;28.47;;;10.90;;
18090;SDS011;9172;49.948;9.208;2022-12-13T03:17:08;22.77;;;9.53;;
18090;SDS011;9172;49.948;9.208;2022-12-13T03:19:39;20.27;;;8.93;;
18090;SDS011;9172;49.948;9.208;2022-12-13T03:22:08;18.10;;;9.37;;
18090;SDS011;9172;49.948;9.208;2022-12-13T03:24:37;21.03;;;9.83;;
18090;SDS011;9172;49.948;9.208;2022-12-13T03:27:07;21.67;;;9.07;;
18090;SDS011;9172;49.948;9.208;2022-12-13T03:29:36;19.57;;;8.90;;
18090;SDS011;9172;49.948;9.208;2022-12-13T03:32:05;16.43;;;7.77;;
18090;SDS011;9172;49.948;9.208;2022-12-13T03:34:35;27.90;;;10.07;;
18090;SDS011;9172;49.948;9.208;2022-12-13T03:37:03;19.00;;;9.00;;
18090;SDS011;9172;49.948;9.208;2022-12-13T03:39:32;22.20;;;9.77;;
18090;SDS011;9172;49.948;9.208;2022-12-13T03:42:01;22.50;;;9.43;;
18090;SDS011;9172;49.948;9.208;2022-12-13T03:44:30;25.90;;;10.17;;
18090;SDS011;9172;49.948;9.208;2022-12-13T03:47:00;21.60;;;10.10;;
18090;SDS011;9172;49.948;9.208;2022-12-13T03:49:30;18.70;;;8.97;;
18090;SDS011;9172;49.948;9.208;2022-12-13T03:51:59;21.47;;;9.20;;
18090;SDS011;9172;49.948;9.208;2022-12-13T03:54:28;18.60;;;8.80;;
18090;SDS011;9172;49.948;9.208;2022-12-13T03:56:58;20.53;;;8.87;;
18090;SDS011;9172;49.948;9.208;2022-12-13T03:59:27;20.13;;;9.23;;
18090;SDS011;9172;49.948;9.208;2022-12-13T04:01:56;19.17;;;8.13;;
18090;SDS011;9172;49.948;9.208;2022-12-13T04:04:25;24.70;;;9.50;;
18090;SDS011;9172;49.948;9.208;2022-12-13T04:06:54;23.53;;;9.80;;
18090;SDS011;9172;49.948;9.208;2022-12-13T04:09:24;20.50;;;9.23;;
18090;SDS011;9172;49.948;9.208;2022-12-13T04:11:52;19.17;;;9.07;;
18090;SDS011;9172;49.948;9.208;2022-12-13T04:17:34;26.20;;;9.40;;
18090;SDS011;9172;49.948;9.208;2022-12-13T04:20:03;21.03;;;9.70;;
18090;SDS011;9172;49.948;9.208;2022-12-13T04:22:34;18.77;;;9.07;;
18090;SDS011;9172;49.948;9.208;2022-12-13T04:25:02;25.90;;;11.00;;
18090;SDS011;9172;49.948;9.208;2022-12-13T04:27:32;21.00;;;9.00;;
18090;SDS011;9172;49.948;9.208;2022-12-13T04:30:03;20.27;;;8.23;;
18090;SDS011;9172;49.948;9.208;2022-12-13T04:32:34;23.83;;;9.93;;
18090;SDS011;9172;49.948;9.208;2022-12-13T04:35:03;28.10;;;10.63;;
18090;SDS011;9172;49.948;9.208;2022-12-13T04:37:33;18.33;;;7.80;;
18090;SDS011;9172;49.948;9.208;2022-12-13T04:40:03;19.07;;;9.17;;
18090;SDS011;9172;49.948;9.208;2022-12-13T04:42:33;25.53;;;10.43;;
18090;SDS011;9172;49.948;9.208;2022-12-13T04:45:02;17.80;;;8.97;;
18090;SDS011;9172;49.948;9.208;2022-12-13T04:47:33;22.63;;;10.90;;
18090;SDS011;9172;49.948;9.208;2022-12-13T04:50:03;27.17;;;10.40;;
18090;SDS011;9172;49.948;9.208;2022-12-13T04:52:33;22.83;;;9.63;;
18090;SDS011;9172;49.948;9.208;2022-12-13T04:55:02;19.70;;;8.70;;
18090;SDS011;9172;49.948;9.208;2022-12-13T04:57:32;22.00;;;9.10;;
18090;SDS011;9172;49.948;9.208;2022-12-13T05:00:01;38.90;;;15.33;;
18090;SDS011;9172;49.948;9.208;2022-12-13T05:02:31;32.33;;;13.87;;
18090;SDS011;9172;49.948;9.208;2022-12-13T05:05:00;19.77;;;9.23;;
18090;SDS011;9172;49.948;9.208;2022-12-13T05:07:30;22.37;;;9.60;;
18090;SDS011;9172;49.948;9.208;2022-12-13T05:09:59;23.50;;;10.10;;
18090;SDS011;9172;49.948;9.208;2022-12-13T05:12:29;21.83;;;8.57;;
18090;SDS011;9172;49.948;9.208;2022-12-13T05:14:59;18.83;;;8.27;;
18090;SDS011;9172;49.948;9.208;2022-12-13T05:17:28;18.27;;;8.63;;
18090;SDS011;9172;49.948;9.208;2022-12-13T05:19:56;19.53;;;8.30;;
18090;SDS011;9172;49.948;9.208;2022-12-13T05:22:27;15.23;;;7.40;;
18090;SDS011;9172;49.948;9.208;2022-12-13T05:24:57;18.20;;;8.10;;
18090;SDS011;9172;49.948;9.208;2022-12-13T05:27:26;20.77;;;8.50;;
18090;SDS011;9172;49.948;9.208;2022-12-13T05:29:56;18.33;;;8.30;;
18090;SDS011;9172;49.948;9.208;2022-12-13T05:32:25;18.33;;;8.27;;
18090;SDS011;9172;49.948;9.208;2022-12-13T05:34:55;21.47;;;9.40;;
18090;SDS011;9172;49.948;9.208;2022-12-13T05:37:24;15.87;;;8.43;;
18090;SDS011;9172;49.948;9.208;2022-12-13T05:39:54;20.03;;;7.93;;
18090;SDS011;9172;49.948;9.208;2022-12-13T05:42:22;20.53;;;8.03;;
18090;SDS011;9172;49.948;9.208;2022-12-13T05:44:51;21.37;;;8.30;;
18090;SDS011;9172;49.948;9.208;2022-12-13T05:47:20;24.87;;;8.50;;
18090;SDS011;9172;49.948;9.208;2022-12-13T05:49:48;18.87;;;8.57;;
18090;SDS011;9172;49.948;9.208;2022-12-13T05:52:18;18.80;;;8.30;;
18090;SDS011;9172;49.948;9.208;2022-12-13T05:54:52;16.83;;;8.10;;
18090;SDS011;9172;49.948;9.208;2022-12-13T05:57:21;18.33;;;8.60;;
18090;SDS011;9172;49.948;9.208;2022-12-13T05:59:50;20.93;;;8.83;;
18090;SDS011;9172;49.948;9.208;2022-12-13T06:02:18;16.00;;;7.47;;
18090;SDS011;9172;49.948;9.208;2022-12-13T06:04:48;18.50;;;7.90;;
18090;SDS011;9172;49.948;9.208;2022-12-13T06:07:16;22.17;;;9.17;;
18090;SDS011;9172;49.948;9.208;2022-12-13T06:09:45;20.73;;;9.93;;
18090;SDS011;9172;49.948;9.208;2022-12-13T06:12:14;17.40;;;8.20;;
18090;SDS011;9172;49.948;9.208;2022-12-13T06:17:20;19.83;;;8.40;;
18090;SDS011;9172;49.948;9.208;2022-12-13T06:19:50;16.07;;;7.77;;
18090;SDS011;9172;49.948;9.208;2022-12-13T06:24:54;19.00;;;8.67;;
18090;SDS011;9172;49.948;9.208;2022-12-13T06:27:24;18.17;;;8.13;;
18090;SDS011;9172;49.948;9.208;2022-12-13T06:29:54;20.23;;;8.27;;
18090;SDS011;9172;49.948;9.208;2022-12-13T06:32:23;21.50;;;9.53;;
18090;SDS011;9172;49.948;9.208;2022-12-13T06:34:51;18.37;;;8.13;;
18090;SDS011;9172;49.948;9.208;2022-12-13T06:39:56;18.07;;;7.57;;
18090;SDS011;9172;49.948;9.208;2022-12-13T06:42:25;15.57;;;8.70;;
18090;SDS011;9172;49.948;9.208;2022-12-13T06:44:54;19.83;;;8.07;;
18090;SDS011;9172;49.948;9.208;2022-12-13T06:47:23;15.80;;;7.07;;
18090;SDS011;9172;49.948;9.208;2022-12-13T06:49:52;18.20;;;7.47;;
18090;SDS011;9172;49.948;9.208;2022-12-13T06:52:22;11.93;;;6.37;;
18090;SDS011;9172;49.948;9.208;2022-12-13T06:54:52;17.60;;;7.23;;
18090;SDS011;9172;49.948;9.208;2022-12-13T06:57:21;16.33;;;7.23;;
18090;SDS011;9172;49.948;9.208;2022-12-13T06:59:49;18.83;;;7.47;;
18090;SDS011;9172;49.948;9.208;2022-12-13T07:02:19;14.17;;;7.07;;
18090;SDS011;9172;49.948;9.208;2022-12-13T07:04:47;18.07;;;8.07;;
18090;SDS011;9172;49.948;9.208;2022-12-13T07:07:16;15.67;;;7.10;;
18090;SDS011;9172;49.948;9.208;2022-12-13T07:09:45;15.53;;;7.13;;
18090;SDS011;9172;49.948;9.208;2022-12-13T07:12:14;19.03;;;7.70;;
18090;SDS011;9172;49.948;9.208;2022-12-13T07:14:45;22.77;;;9.60;;
18090;SDS011;9172;49.948;9.208;2022-12-13T07:17:14;24.70;;;10.70;;
18090;SDS011;9172;49.948;9.208;2022-12-13T07:19:44;20.87;;;10.87;;
18090;SDS011;9172;49.948;9.208;2022-12-13T07:22:13;24.57;;;11.23;;
18090;SDS011;9172;49.948;9.208;2022-12-13T07:24:41;30.03;;;12.83;;
18090;SDS011;9172;49.948;9.208;2022-12-13T07:27:11;25.70;;;9.47;;
18090;SDS011;9172;49.948;9.208;2022-12-13T07:29:41;22.50;;;7.83;;
18090;SDS011;9172;49.948;9.208;2022-12-13T07:32:10;22.93;;;9.17;;
18090;SDS011;9172;49.948;9.208;2022-12-13T07:34:39;20.30;;;10.00;;
18090;SDS011;9172;49.948;9.208;2022-12-13T07:37:08;17.63;;;7.63;;
18090;SDS011;9172;49.948;9.208;2022-12-13T07:39:36;14.33;;;6.80;;
18090;SDS011;9172;49.948;9.208;2022-12-13T07:42:05;14.47;;;7.50;;
18090;SDS011;9172;49.948;9.208;2022-12-13T07:44:33;15.60;;;8.43;;
18090;SDS011;9172;49.948;9.208;2022-12-13T07:47:02;23.33;;;9.03;;
18090;SDS011;9172;49.948;9.208;2022-12-13T07:49:32;18.53;;;8.33;;
18090;SDS011;9172;49.948;9.208;2022-12-13T07:52:01;18.27;;;8.20;;
18090;SDS011;9172;49.948;9.208;2022-12-13T07:54:30;17.30;;;7.77;;
18090;SDS011;9172;49.948;9.208;2022-12-13T07:56:59;15.03;;;7.20;;
18090;SDS011;9172;49.948;9.208;2022-12-13T07:59:28;13.93;;;7.23;;
18090;SDS011;9172;49.948;9.208;2022-12-13T08:01:57;17.47;;;7.90;;
18090;SDS011;9172;49.948;9.208;2022-12-13T08:04:25;14.90;;;7.53;;
18090;SDS011;9172;49.948;9.208;2022-12-13T08:06:55;17.10;;;8.00;;
18090;SDS011;9172;49.948;9.208;2022-12-13T08:09:23;19.50;;;8.80;;
18090;SDS011;9172;49.948;9.208;2022-12-13T08:11:54;21.47;;;8.50;;
18090;SDS011;9172;49.948;9.208;2022-12-13T08:14:24;17.17;;;7.67;;
18090;SDS011;9172;49.948;9.208;2022-12-13T08:16:54;17.23;;;7.37;;
18090;SDS011;9172;49.948;9.208;2022-12-13T08:19:23;15.83;;;7.13;;
18090;SDS011;9172;49.948;9.208;2022-12-13T08:21:52;16.70;;;7.63;;
18090;SDS011;9172;49.948;9.208;2022-12-13T08:24:21;22.70;;;8.70;;
18090;SDS011;9172;49.948;9.208;2022-12-13T08:26:51;19.13;;;8.23;;
18090;SDS011;9172;49.948;9.208;2022-12-13T08:29:20;18.70;;;8.53;;
18090;SDS011;9172;49.948;9.208;2022-12-13T08:31:49;16.53;;;7.60;;
18090;SDS011;9172;49.948;9.208;2022-12-13T08:34:18;19.73;;;8.53;;
18090;SDS011;9172;49.948;9.208;2022-12-13T08:36:48;18.97;;;8.30;;
18090;SDS011;9172;49.948;9.208;2022-12-13T08:39:19;19.27;;;9.10;;
18090;SDS011;9172;49.948;9.208;2022-12-13T08:41:48;22.00;;;9.27;;
18090;SDS011;9172;49.948;9.208;2022-12-13T08:44:17;24.77;;;9.37;;
18090;SDS011;9172;49.948;9.208;2022-12-13T08:46:47;18.67;;;8.40;;
18090;SDS011;9172;49.948;9.208;2022-12-13T08:49:16;24.77;;;9.73;;
18090;SDS011;9172;49.948;9.208;2022-12-13T08:51:44;20.83;;;9.40;;
18090;SDS011;9172;49.948;9.208;2022-12-13T08:54:14;17.13;;;8.37;;
18090;SDS011;9172;49.948;9.208;2022-12-13T08:56:43;26.93;;;9.63;;
18090;SDS011;9172;49.948;9.208;2022-12-13T08:59:12;20.47;;;8.50;;
18090;SDS011;9172;49.948;9.208;2022-12-13T09:01:41;18.10;;;8.23;;
18090;SDS011;9172;49.948;9.208;2022-12-13T09:04:10;19.70;;;8.23;;
18090;SDS011;9172;49.948;9.208;2022-12-13T09:06:40;13.97;;;7.03;;
18090;SDS011;9172;49.948;9.208;2022-12-13T09:09:09;19.20;;;7.07;;
18090;SDS011;9172;49.948;9.208;2022-12-13T09:11:38;16.10;;;7.17;;
18090;SDS011;9172;49.948;9.208;2022-12-13T09:14:07;17.83;;;8.27;;
18090;SDS011;9172;49.948;9.208;2022-12-13T09:16:36;22.00;;;10.00;;
18090;SDS011;9172;49.948;9.208;2022-12-13T09:19:05;21.47;;;9.40;;
18090;SDS011;9172;49.948;9.208;2022-12-13T09:21:35;20.90;;;9.53;;
18090;SDS011;9172;49.948;9.208;2022-12-13T09:24:03;18.30;;;8.00;;
18090;SDS011;9172;49.948;9.208;2022-12-13T09:26:32;17.37;;;7.60;;
18090;SDS011;9172;49.948;9.208;2022-12-13T09:29:01;13.67;;;6.40;;
18090;SDS011;9172;49.948;9.208;2022-12-13T09:31:29;17.33;;;7.07;;
18090;SDS011;9172;49.948;9.208;2022-12-13T09:34:03;13.37;;;6.27;;
18090;SDS011;9172;49.948;9.208;2022-12-13T09:36:33;15.00;;;6.77;;
18090;SDS011;9172;49.948;9.208;2022-12-13T09:39:01;15.83;;;7.03;;
18090;SDS011;9172;49.948;9.208;2022-12-13T09:41:31;14.80;;;6.57;;
18090;SDS011;9172;49.948;9.208;2022-12-13T09:44:03;14.60;;;7.13;;
18090;SDS011;9172;49.948;9.208;2022-12-13T09:46:35;19.13;;;9.10;;
18090;SDS011;9172;49.948;9.208;2022-12-13T09:49:08;16.77;;;8.57;;
18090;SDS011;9172;49.948;9.208;2022-12-13T09:51:39;16.03;;;8.67;;
18090;SDS011;9172;49.948;9.208;2022-12-13T09:54:13;23.40;;;9.27;;
18090;SDS011;9172;49.948;9.208;2022-12-13T09:56:44;19.13;;;8.73;;
18090;SDS011;9172;49.948;9.208;2022-12-13T09:59:15;19.43;;;8.97;;
18090;SDS011;9172;49.948;9.208;2022-12-13T10:01:45;19.57;;;8.67;;
18090;SDS011;9172;49.948;9.208;2022-12-13T10:04:13;17.80;;;7.97;;
18090;SDS011;9172;49.948;9.208;2022-12-13T10:06:42;15.53;;;7.00;;
18090;SDS011;9172;49.948;9.208;2022-12-13T10:09:11;17.30;;;7.03;;
18090;SDS011;9172;49.948;9.208;2022-12-13T10:11:46;17.83;;;7.27;;
18090;SDS011;9172;49.948;9.208;2022-12-13T10:14:17;13.30;;;6.70;;
18090;SDS011;9172;49.948;9.208;2022-12-13T10:16:49;11.63;;;6.47;;
18090;SDS011;9172;49.948;9.208;2022-12-13T10:19:23;19.97;;;6.97;;
18090;SDS011;9172;49.948;9.208;2022-12-13T10:21:55;13.67;;;6.97;;
18090;SDS011;9172;49.948;9.208;2022-12-13T10:24:25;19.70;;;7.37;;
18090;SDS011;9172;49.948;9.208;2022-12-13T10:26:56;14.17;;;7.33;;
18090;SDS011;9172;49.948;9.208;2022-12-13T10:29:28;20.30;;;8.33;;
18090;SDS011;9172;49.948;9.208;2022-12-13T10:31:56;17.10;;;6.70;;
18090;SDS011;9172;49.948;9.208;2022-12-13T10:34:27;17.87;;;7.27;;
18090;SDS011;9172;49.948;9.208;2022-12-13T10:36:57;10.83;;;6.10;;
18090;SDS011;9172;49.948;9.208;2022-12-13T10:39:35;16.37;;;7.23;;
18090;SDS011;9172;49.948;9.208;2022-12-13T10:42:10;22.73;;;8.83;;
18090;SDS011;9172;49.948;9.208;2022-12-13T10:44:39;19.37;;;7.50;;
18090;SDS011;9172;49.948;9.208;2022-12-13T10:47:13;17.13;;;8.10;;
18090;SDS011;9172;49.948;9.208;2022-12-13T10:49:47;17.70;;;9.23;;
18090;SDS011;9172;49.948;9.208;2022-12-13T10:52:29;21.47;;;9.13;;
18090;SDS011;9172;49.948;9.208;2022-12-13T10:55:01;18.70;;;7.63;;
18090;SDS011;9172;49.948;9.208;2022-12-13T10:57:31;15.40;;;7.47;;
18090;SDS011;9172;49.948;9.208;2022-12-13T11:00:00;14.90;;;6.67;;
18090;SDS011;9172;49.948;9.208;2022-12-13T11:02:30;11.43;;;5.63;;
18090;SDS011;9172;49.948;9.208;2022-12-13T11:05:22;13.07;;;6.17;;
18090;SDS011;9172;49.948;9.208;2022-12-13T11:07:50;9.93;;;4.87;;
18090;SDS011;9172;49.948;9.208;2022-12-13T11:10:22;10.50;;;5.63;;
18090;SDS011;9172;49.948;9.208;2022-12-13T11:12:52;11.77;;;5.20;;
18090;SDS011;9172;49.948;9.208;2022-12-13T11:15:25;11.10;;;5.57;;
18090;SDS011;9172;49.948;9.208;2022-12-13T11:17:58;13.87;;;6.07;;
18090;SDS011;9172;49.948;9.208;2022-12-13T11:20:29;12.73;;;5.57;;
18090;SDS011;9172;49.948;9.208;2022-12-13T11:23:00;12.40;;;5.43;;
18090;SDS011;9172;49.948;9.208;2022-12-13T11:25:32;13.50;;;6.33;;
18090;SDS011;9172;49.948;9.208;2022-12-13T11:28:10;10.67;;;5.83;;
18090;SDS011;9172;49.948;9.208;2022-12-13T11:30:42;13.87;;;5.60;;
18090;SDS011;9172;49.948;9.208;2022-12-13T11:33:15;8.17;;;4.87;;
18090;SDS011;9172;49.948;9.208;2022-12-13T11:35:55;11.40;;;5.87;;
18090;SDS011;9172;49.948;9.208;2022-12-13T11:38:31;9.30;;;5.07;;
18090;SDS011;9172;49.948;9.208;2022-12-13T11:41:02;10.50;;;5.17;;
18090;SDS011;9172;49.948;9.208;2022-12-13T11:43:38;10.60;;;5.50;;
18090;SDS011;9172;49.948;9.208;2022-12-13T11:46:12;10.83;;;4.97;;
18090;SDS011;9172;49.948;9.208;2022-12-13T11:48:43;13.87;;;5.47;;
18090;SDS011;9172;49.948;9.208;2022-12-13T11:51:17;12.20;;;5.13;;
18090;SDS011;9172;49.948;9.208;2022-12-13T11:53:48;11.30;;;5.33;;
18090;SDS011;9172;49.948;9.208;2022-12-13T11:56:22;11.70;;;5.73;;
18090;SDS011;9172;49.948;9.208;2022-12-13T11:58:55;10.80;;;4.70;;
18090;SDS011;9172;49.948;9.208;2022-12-13T12:01:29;10.30;;;5.73;;
18090;SDS011;9172;49.948;9.208;2022-12-13T12:04:03;11.40;;;6.00;;
18090;SDS011;9172;49.948;9.208;2022-12-13T12:06:37;10.67;;;5.10;;
18090;SDS011;9172;49.948;9.208;2022-12-13T12:09:10;10.57;;;5.03;;
18090;SDS011;9172;49.948;9.208;2022-12-13T12:11:43;11.73;;;5.13;;
18090;SDS011;9172;49.948;9.208;2022-12-13T12:14:15;9.77;;;5.27;;
18090;SDS011;9172;49.948;9.208;2022-12-13T12:16:47;12.90;;;5.70;;
18090;SDS011;9172;49.948;9.208;2022-12-13T12:19:18;11.23;;;4.90;;
18090;SDS011;9172;49.948;9.208;2022-12-13T12:22:10;14.23;;;5.60;;
18090;SDS011;9172;49.948;9.208;2022-12-13T12:24:50;10.47;;;5.13;;
18090;SDS011;9172;49.948;9.208;2022-12-13T12:27:25;11.63;;;5.20;;
18090;SDS011;9172;49.948;9.208;2022-12-13T12:30:03;12.30;;;5.67;;
18090;SDS011;9172;49.948;9.208;2022-12-13T12:32:41;9.93;;;4.90;;
18090;SDS011;9172;49.948;9.208;2022-12-13T12:35:32;9.27;;;5.10;;
18090;SDS011;9172;49.948;9.208;2022-12-13T12:38:20;8.87;;;4.30;;
18090;SDS011;9172;49.948;9.208;2022-12-13T12:41:03;12.27;;;5.23;;
18090;SDS011;9172;49.948;9.208;2022-12-13T12:43:40;8.13;;;4.63;;
18090;SDS011;9172;49.948;9.208;2022-12-13T12:46:16;9.00;;;4.83;;
18090;SDS011;9172;49.948;9.208;2022-12-13T12:49:01;8.37;;;4.47;;
18090;SDS011;9172;49.948;9.208;2022-12-13T12:51:40;12.93;;;4.70;;
18090;SDS011;9172;49.948;9.208;2022-12-13T12:54:14;10.33;;;4.97;;
18090;SDS011;9172;49.948;9.208;2022-12-13T12:56:49;10.37;;;4.50;;
18090;SDS011;9172;49.948;9.208;2022-12-13T12:59:21;11.63;;;4.30;;
18090;SDS011;9172;49.948;9.208;2022-12-13T13:01:53;6.33;;;3.93;;
18090;SDS011;9172;49.948;9.208;2022-12-13T13:04:25;9.67;;;4.37;;
18090;SDS011;9172;49.948;9.208;2022-12-13T13:06:58;9.47;;;4.33;;
18090;SDS011;9172;49.948;9.208;2022-12-13T13:09:29;11.70;;;4.10;;
18090;SDS011;9172;49.948;9.208;2022-12-13T13:12:01;6.47;;;3.80;;
18090;SDS011;9172;49.948;9.208;2022-12-13T13:14:32;9.63;;;4.90;;
18090;SDS011;9172;49.948;9.208;2022-12-13T13:20:21;10.20;;;4.60;;
18090;SDS011;9172;49.948;9.208;2022-12-13T13:22:51;9.20;;;4.53;;
18090;SDS011;9172;49.948;9.208;2022-12-13T13:25:28;11.53;;;5.30;;
18090;SDS011;9172;49.948;9.208;2022-12-13T13:28:03;9.23;;;4.87;;
18090;SDS011;9172;49.948;9.208;2022-12-13T13:30:34;10.83;;;4.47;;
18090;SDS011;9172;49.948;9.208;2022-12-13T13:33:07;10.23;;;4.80;;
18090;SDS011;9172;49.948;9.208;2022-12-13T13:38:26;8.53;;;4.80;;
18090;SDS011;9172;49.948;9.208;2022-12-13T13:41:39;8.17;;;3.97;;
18090;SDS011;9172;49.948;9.208;2022-12-13T13:47:11;6.53;;;3.83;;
18090;SDS011;9172;49.948;9.208;2022-12-13T13:52:18;8.23;;;4.37;;
18090;SDS011;9172;49.948;9.208;2022-12-13T13:54:54;6.97;;;3.80;;
18090;SDS011;9172;49.948;9.208;2022-12-13T14:00:41;10.13;;;4.57;;
18090;SDS011;9172;49.948;9.208;2022-12-13T14:09:52;8.60;;;4.10;;
18090;SDS011;9172;49.948;9.208;2022-12-13T14:16:06;10.40;;;4.50;;
18090;SDS011;9172;49.948;9.208;2022-12-13T14:21:59;14.80;;;5.93;;
18090;SDS011;9172;49.948;9.208;2022-12-13T14:24:38;8.63;;;4.57;;
18090;SDS011;9172;49.948;9.208;2022-12-13T14:27:14;9.10;;;4.60;;
18090;SDS011;9172;49.948;9.208;2022-12-13T14:29:53;10.07;;;4.50;;
18090;SDS011;9172;49.948;9.208;2022-12-13T14:35:01;8.83;;;4.83;;
18090;SDS011;9172;49.948;9.208;2022-12-13T14:40:21;8.07;;;4.27;;
18090;SDS011;9172;49.948;9.208;2022-12-13T14:42:52;11.33;;;5.60;;
18090;SDS011;9172;49.948;9.208;2022-12-13T14:45:30;10.27;;;5.03;;
18090;SDS011;9172;49.948;9.208;2022-12-13T14:48:03;9.10;;;4.83;;
18090;SDS011;9172;49.948;9.208;2022-12-13T14:50:42;8.10;;;4.80;;
18090;SDS011;9172;49.948;9.208;2022-12-13T14:56:03;16.63;;;5.70;;
18090;SDS011;9172;49.948;9.208;2022-12-13T14:58:34;7.23;;;4.40;;
18090;SDS011;9172;49.948;9.208;2022-12-13T15:01:04;12.33;;;5.63;;
18090;SDS011;9172;49.948;9.208;2022-12-13T15:03:34;7.50;;;4.40;;
18090;SDS011;9172;49.948;9.208;2022-12-13T15:08:45;8.20;;;4.53;;
18090;SDS011;9172;49.948;9.208;2022-12-13T15:11:15;11.23;;;5.37;;
18090;SDS011;9172;49.948;9.208;2022-12-13T15:13:45;11.00;;;5.33;;
18090;SDS011;9172;49.948;9.208;2022-12-13T15:19:03;13.30;;;5.50;;
18090;SDS011;9172;49.948;9.208;2022-12-13T15:24:10;12.87;;;5.67;;
18090;SDS011;9172;49.948;9.208;2022-12-13T15:26:39;10.40;;;5.03;;
18090;SDS011;9172;49.948;9.208;2022-12-13T15:29:17;11.00;;;5.20;;
18090;SDS011;9172;49.948;9.208;2022-12-13T15:31:49;13.07;;;6.10;;
18090;SDS011;9172;49.948;9.208;2022-12-13T15:34:29;12.47;;;5.97;;
18090;SDS011;9172;49.948;9.208;2022-12-13T15:37:14;10.03;;;4.90;;
18090;SDS011;9172;49.948;9.208;2022-12-13T15:39:48;13.67;;;5.57;;
18090;SDS011;9172;49.948;9.208;2022-12-13T15:42:28;13.83;;;5.30;;
18090;SDS011;9172;49.948;9.208;2022-12-13T15:44:59;13.57;;;4.83;;
18090;SDS011;9172;49.948;9.208;2022-12-13T15:47:32;12.60;;;6.13;;
18090;SDS011;9172;49.948;9.208;2022-12-13T15:50:28;14.13;;;6.93;;
18090;SDS011;9172;49.948;9.208;2022-12-13T15:53:00;11.03;;;5.47;;
18090;SDS011;9172;49.948;9.208;2022-12-13T15:58:18;12.63;;;5.73;;
18090;SDS011;9172;49.948;9.208;2022-12-13T16:00:53;14.60;;;6.33;;
18090;SDS011;9172;49.948;9.208;2022-12-13T16:03:23;12.03;;;5.53;;
18090;SDS011;9172;49.948;9.208;2022-12-13T16:05:54;14.37;;;5.63;;
18090;SDS011;9172;49.948;9.208;2022-12-13T16:08:25;19.73;;;6.73;;
18090;SDS011;9172;49.948;9.208;2022-12-13T16:10:55;11.23;;;6.00;;
18090;SDS011;9172;49.948;9.208;2022-12-13T16:13:25;12.10;;;5.53;;